createdAt,value
2023-01-25T00:00:48.516Z,101581.34
2023-01-25T00:01:51.076Z,101579.63
2023-01-25T00:02:56.203Z,101580.44
2023-01-25T00:03:58.728Z,101576.97
2023-01-25T00:05:00.656Z,101581.25
2023-01-25T00:06:04.910Z,101576.97
2023-01-25T00:07:07.034Z,101575.19
2023-01-25T00:08:09.061Z,101576.91
2023-01-25T00:09:11.894Z,101545.66
2023-01-25T00:10:13.713Z,101576.06
2023-01-25T00:11:17.086Z,101570.88
2023-01-25T00:12:19.004Z,101571.72
2023-01-25T00:13:20.647Z,101573.50
2023-01-25T00:14:22.982Z,101569.22
2023-01-25T00:15:25.127Z,101566.72
2023-01-25T00:16:27.106Z,101571.03
2023-01-25T00:17:28.840Z,101543.19
2023-01-25T00:18:31.477Z,101558.88
2023-01-25T00:19:34.014Z,101559.75
2023-01-25T00:20:35.895Z,101558.03
2023-01-25T00:21:38.441Z,101561.41
2023-01-25T00:22:40.513Z,101558.00
2023-01-25T00:23:42.529Z,101559.69
2023-01-25T00:24:44.735Z,101561.41
2023-01-25T00:25:46.686Z,101554.50
2023-01-25T00:26:49.245Z,101554.44
2023-01-25T00:27:51.302Z,101550.19
2023-01-25T00:28:55.380Z,101547.63
2023-01-25T00:29:57.183Z,101547.56
2023-01-25T00:31:06.293Z,101547.53
2023-01-25T00:32:42.512Z,101553.66
2023-01-25T00:33:51.680Z,101551.94
2023-01-25T00:34:53.695Z,101558.69
2023-01-25T00:35:57.462Z,101532.88
2023-01-25T00:37:05.104Z,101544.19
2023-01-25T00:38:27.624Z,101544.19
2023-01-25T00:39:29.741Z,101531.13
2023-01-25T00:40:31.680Z,101541.59
2023-01-25T00:41:33.336Z,101543.28
2023-01-25T00:42:35.074Z,101539.84
2023-01-25T00:43:36.822Z,101542.41
2023-01-25T00:44:39.530Z,101535.47
2023-01-25T00:45:41.335Z,101536.47
2023-01-25T00:46:43.237Z,101529.53
2023-01-25T00:47:45.093Z,101533.00
2023-01-25T00:48:47.427Z,101536.47
2023-01-25T00:49:50.437Z,101532.19
2023-01-25T00:50:53.935Z,101535.66
2023-01-25T00:51:56.599Z,101539.97
2023-01-25T00:53:01.378Z,101528.78
2023-01-25T00:54:03.426Z,101532.25
2023-01-25T00:55:06.145Z,101527.03
2023-01-25T00:56:08.146Z,101534.75
2023-01-25T00:57:10.393Z,101512.19
2023-01-25T00:58:12.053Z,101523.56
2023-01-25T00:59:15.630Z,101498.38
2023-01-25T01:00:17.668Z,101534.78
2023-01-25T01:01:19.505Z,101515.78
2023-01-25T01:02:21.426Z,101521.03
2023-01-25T01:03:24.134Z,101529.66
2023-01-25T01:04:26.768Z,101521.91
2023-01-25T01:05:29.578Z,101521.06
2023-01-25T01:06:31.413Z,101501.91
2023-01-25T01:07:33.195Z,101518.44
2023-01-25T01:08:38.475Z,101514.16
2023-01-25T01:09:40.330Z,101515.03
2023-01-25T01:10:42.308Z,101512.44
2023-01-25T01:11:44.702Z,101512.41
2023-01-25T01:12:46.538Z,101512.41
2023-01-25T01:13:48.255Z,101508.09
2023-01-25T01:14:50.003Z,101510.69
2023-01-25T01:15:52.230Z,101517.56
2023-01-25T01:16:55.889Z,101520.16
2023-01-25T01:18:01.341Z,101497.56
2023-01-25T01:19:08.417Z,101514.97
2023-01-25T01:20:11.104Z,101517.63
2023-01-25T01:21:17.478Z,101508.09
2023-01-25T01:22:19.489Z,101507.22
2023-01-25T01:23:22.772Z,101508.09
2023-01-25T01:24:25.283Z,101501.16
2023-01-25T01:25:27.143Z,101504.63
2023-01-25T01:26:29.128Z,101511.66
2023-01-25T01:27:30.949Z,101514.31
2023-01-25T01:28:35.223Z,101516.91
2023-01-25T01:29:37.296Z,101520.31
2023-01-25T01:30:40.140Z,101522.03
2023-01-25T01:31:42.167Z,101524.63
2023-01-25T01:32:44.170Z,101533.28
2023-01-25T01:33:53.226Z,101531.56
2023-01-25T01:34:55.284Z,101529.84
2023-01-25T01:35:57.514Z,101522.13
2023-01-25T01:36:59.212Z,101519.50
2023-01-25T01:38:00.974Z,101524.72
2023-01-25T01:39:05.140Z,101516.91
2023-01-25T01:40:07.603Z,101516.88
2023-01-25T01:41:10.078Z,101522.94
2023-01-25T01:42:12.141Z,101522.03
2023-01-25T01:43:22.612Z,101517.75
2023-01-25T01:44:49.266Z,101515.19
2023-01-25T01:45:55.260Z,101514.38
2023-01-25T01:46:59.344Z,101518.69
2023-01-25T01:48:01.149Z,101517.78
2023-01-25T01:49:29.339Z,101520.44
2023-01-25T01:50:31.266Z,101521.25
2023-01-25T01:51:55.103Z,101518.63
2023-01-25T01:52:56.754Z,101517.75
2023-01-25T01:54:07.353Z,101520.38
2023-01-25T01:55:15.257Z,101516.88
2023-01-25T01:56:24.218Z,101504.63
2023-01-25T01:57:33.034Z,101518.56
2023-01-25T01:58:36.724Z,101517.72
2023-01-25T01:59:41.515Z,101518.59
2023-01-25T02:00:43.365Z,101515.13
2023-01-25T02:01:45.596Z,101520.38
2023-01-25T02:02:50.075Z,101514.38
2023-01-25T02:03:52.054Z,101517.84
2023-01-25T02:05:00.380Z,101515.25
2023-01-25T02:06:09.001Z,101515.19
2023-01-25T02:07:27.984Z,101512.56
2023-01-25T02:08:34.552Z,101516.03
2023-01-25T02:09:36.558Z,101512.53
2023-01-25T02:10:39.195Z,101511.63
2023-01-25T02:11:42.128Z,101509.03
2023-01-25T02:12:45.968Z,101513.38
2023-01-25T02:13:48.805Z,101495.09
2023-01-25T02:14:52.805Z,101517.69
2023-01-25T02:15:56.557Z,101497.78
2023-01-25T02:16:58.917Z,101521.22
2023-01-25T02:18:00.712Z,101520.31
2023-01-25T02:19:03.924Z,101515.22
2023-01-25T02:20:29.436Z,101528.06
2023-01-25T02:21:37.985Z,101513.44
2023-01-25T02:22:46.006Z,101515.97
2023-01-25T02:24:04.529Z,101503.03
2023-01-25T02:25:11.960Z,101508.16
2023-01-25T02:26:15.618Z,101514.16
2023-01-25T02:27:19.145Z,101510.69
2023-01-25T02:28:36.619Z,101509.72
2023-01-25T02:29:39.309Z,101507.09
2023-01-25T02:30:42.991Z,101494.81
2023-01-25T02:31:46.208Z,101505.22
2023-01-25T02:32:48.044Z,101503.50
2023-01-25T02:33:49.871Z,101501.72
2023-01-25T02:34:51.621Z,101503.38
2023-01-25T02:36:14.376Z,101496.44
2023-01-25T02:37:16.591Z,101499.84
2023-01-25T02:38:21.270Z,101507.53
2023-01-25T02:39:26.542Z,101488.44
2023-01-25T02:40:31.397Z,101498.88
2023-01-25T02:41:34.025Z,101496.38
2023-01-25T02:42:36.596Z,101498.06
2023-01-25T02:43:39.128Z,101471.28
2023-01-25T02:44:42.380Z,101494.69
2023-01-25T02:45:52.554Z,101493.84
2023-01-25T02:46:54.823Z,101495.56
2023-01-25T02:47:57.755Z,101489.56
2023-01-25T02:49:00.760Z,101487.91
2023-01-25T02:50:03.081Z,101487.94
2023-01-25T02:51:08.237Z,101488.81
2023-01-25T02:52:11.216Z,101484.47
2023-01-25T02:53:13.214Z,101489.69
2023-01-25T02:54:19.743Z,101490.56
2023-01-25T02:55:21.485Z,101501.75
2023-01-25T02:56:23.962Z,101481.19
2023-01-25T02:57:26.194Z,101484.66
2023-01-25T02:58:27.887Z,101469.88
2023-01-25T02:59:29.809Z,101475.94
2023-01-25T03:00:31.628Z,101486.28
2023-01-25T03:01:38.266Z,101482.81
2023-01-25T03:02:40.368Z,101482.81
2023-01-25T03:03:42.649Z,101478.47
2023-01-25T03:04:44.333Z,101474.06
2023-01-25T03:05:46.209Z,101486.16
2023-01-25T03:06:48.288Z,101477.53
2023-01-25T03:07:50.099Z,101485.28
2023-01-25T03:08:51.782Z,101480.13
2023-01-25T03:09:53.460Z,101479.22
2023-01-25T03:10:59.953Z,101482.69
2023-01-25T03:12:01.711Z,101476.66
2023-01-25T03:13:04.335Z,101474.94
2023-01-25T03:14:05.974Z,101466.34
2023-01-25T03:15:08.729Z,101484.41
2023-01-25T03:16:13.210Z,101474.03
2023-01-25T03:17:15.133Z,101474.88
2023-01-25T03:18:16.907Z,101476.56
2023-01-25T03:19:18.791Z,101416.56
2023-01-25T03:20:20.622Z,101471.28
2023-01-25T03:21:23.877Z,101478.19
2023-01-25T03:22:25.590Z,101469.56
2023-01-25T03:23:28.295Z,101479.03
2023-01-25T03:24:30.378Z,101466.06
2023-01-25T03:25:32.363Z,101472.88
2023-01-25T03:26:54.003Z,101465.06
2023-01-25T03:27:56.339Z,101397.28
2023-01-25T03:28:58.246Z,101463.38
2023-01-25T03:30:00.057Z,101463.38
2023-01-25T03:31:02.047Z,101464.22
2023-01-25T03:32:04.579Z,101456.47
2023-01-25T03:33:09.546Z,101465.94
2023-01-25T03:34:11.279Z,101466.78
2023-01-25T03:35:13.120Z,101468.50
2023-01-25T03:36:14.936Z,101464.22
2023-01-25T03:37:16.842Z,101463.34
2023-01-25T03:38:20.908Z,101459.88
2023-01-25T03:39:23.128Z,101440.78
2023-01-25T03:40:24.800Z,101459.03
2023-01-25T03:41:26.738Z,101460.81
2023-01-25T03:42:28.761Z,101465.09
2023-01-25T03:43:31.347Z,101457.34
2023-01-25T03:44:33.067Z,101456.53
2023-01-25T03:45:35.623Z,101459.94
2023-01-25T03:46:41.534Z,101458.22
2023-01-25T03:47:43.444Z,101462.53
2023-01-25T03:48:45.115Z,101429.63
2023-01-25T03:49:47.519Z,101477.13
2023-01-25T03:50:55.445Z,101461.66
2023-01-25T03:51:58.269Z,101458.22
2023-01-25T03:53:06.340Z,101459.06
2023-01-25T03:54:08.546Z,101458.22
2023-01-25T03:55:10.662Z,101451.28
2023-01-25T03:56:17.694Z,101453.81
2023-01-25T03:57:19.468Z,101461.56
2023-01-25T03:58:22.177Z,101459.84
2023-01-25T03:59:25.714Z,101458.97
2023-01-25T04:00:27.422Z,101456.38
2023-01-25T04:01:29.257Z,101452.06
2023-01-25T04:02:31.240Z,101463.28
2023-01-25T04:03:34.271Z,101453.75
2023-01-25T04:04:36.324Z,101456.38
2023-01-25T04:05:38.850Z,101456.34
2023-01-25T04:06:40.958Z,101458.03
2023-01-25T04:07:42.711Z,101448.50
2023-01-25T04:08:44.553Z,101456.28
2023-01-25T04:09:46.303Z,101455.38
2023-01-25T04:10:56.188Z,101452.75
2023-01-25T04:11:58.700Z,101455.31
2023-01-25T04:13:01.440Z,101457.00
2023-01-25T04:14:03.262Z,101453.53
2023-01-25T04:15:05.562Z,101450.88
2023-01-25T04:16:11.953Z,101446.53
2023-01-25T04:17:14.214Z,101454.22
2023-01-25T04:18:16.584Z,101452.44
2023-01-25T04:19:18.410Z,101451.53
2023-01-25T04:20:20.185Z,101445.47
2023-01-25T04:21:21.976Z,101444.56
2023-01-25T04:22:24.505Z,101448.91
2023-01-25T04:23:27.284Z,101449.75
2023-01-25T04:24:29.098Z,101452.38
2023-01-25T04:25:30.842Z,101454.09
2023-01-25T04:26:33.873Z,101448.94
2023-01-25T04:27:35.901Z,101446.34
2023-01-25T04:28:38.875Z,101446.34
2023-01-25T04:29:42.068Z,101450.69
2023-01-25T04:30:44.333Z,101457.59
2023-01-25T04:31:46.481Z,101446.41
2023-01-25T04:32:50.314Z,101445.59
2023-01-25T04:33:52.159Z,101443.00
2023-01-25T04:34:54.053Z,101443.84
2023-01-25T04:35:55.896Z,101452.44
2023-01-25T04:36:58.094Z,101392.59
2023-01-25T04:38:00.482Z,101438.72
2023-01-25T04:39:04.668Z,101437.84
2023-01-25T04:40:07.410Z,101435.25
2023-01-25T04:41:09.863Z,101441.31
2023-01-25T04:42:11.543Z,101441.31
2023-01-25T04:43:15.632Z,101435.25
2023-01-25T04:44:17.541Z,101441.22
2023-01-25T04:45:19.411Z,101436.94
2023-01-25T04:46:21.436Z,101440.38
2023-01-25T04:47:23.475Z,101436.94
2023-01-25T04:48:26.607Z,101436.06
2023-01-25T04:49:28.983Z,101439.53
2023-01-25T04:50:31.556Z,101437.75
2023-01-25T04:51:33.387Z,101436.00
2023-01-25T04:52:35.136Z,101436.88
2023-01-25T04:53:37.398Z,101433.41
2023-01-25T04:54:39.592Z,101428.22
2023-01-25T04:55:46.375Z,101423.00
2023-01-25T04:56:48.103Z,101432.53
2023-01-25T04:57:51.471Z,101435.94
2023-01-25T04:58:53.370Z,101432.47
2023-01-25T04:59:55.766Z,101434.22
2023-01-25T05:01:04.861Z,101438.53
2023-01-25T05:02:06.735Z,101430.75
2023-01-25T05:03:08.782Z,101429.88
2023-01-25T05:04:10.465Z,101429.06
2023-01-25T05:05:13.359Z,101429.00
2023-01-25T05:06:15.734Z,101431.56
2023-01-25T05:07:17.689Z,101427.25
2023-01-25T05:08:19.590Z,101428.09
2023-01-25T05:09:21.697Z,101433.28
2023-01-25T05:10:23.622Z,101423.81
2023-01-25T05:11:25.355Z,101426.41
2023-01-25T05:12:27.147Z,101430.63
2023-01-25T05:13:29.122Z,101425.47
2023-01-25T05:14:33.642Z,101429.81
2023-01-25T05:15:35.485Z,101428.03
2023-01-25T05:16:37.302Z,101431.47
2023-01-25T05:17:39.039Z,101409.75
2023-01-25T05:18:48.477Z,101433.22
2023-01-25T05:19:51.143Z,101425.44
2023-01-25T05:20:56.346Z,101435.78
2023-01-25T05:21:58.335Z,101427.97
2023-01-25T05:23:00.325Z,101408.00
2023-01-25T05:24:02.305Z,101430.63
2023-01-25T05:25:06.434Z,101432.34
2023-01-25T05:26:27.504Z,101424.63
2023-01-25T05:27:29.222Z,101424.66
2023-01-25T05:28:30.905Z,101428.97
2023-01-25T05:29:37.872Z,101345.63
2023-01-25T05:30:39.677Z,101423.84
2023-01-25T05:31:41.453Z,101428.13
2023-01-25T05:32:43.110Z,101430.72
2023-01-25T05:33:44.895Z,101429.06
2023-01-25T05:34:46.844Z,101435.94
2023-01-25T05:35:48.597Z,101431.66
2023-01-25T05:36:50.431Z,101433.34
2023-01-25T05:37:56.759Z,101427.31
2023-01-25T05:39:01.594Z,101428.13
2023-01-25T05:40:04.109Z,101430.72
2023-01-25T05:41:06.149Z,101428.19
2023-01-25T05:42:13.168Z,101429.06
2023-01-25T05:43:15.233Z,101430.03
2023-01-25T05:44:17.354Z,101429.22
2023-01-25T05:45:19.779Z,101431.03
2023-01-25T05:46:21.653Z,101434.44
2023-01-25T05:47:23.404Z,101432.66
2023-01-25T05:48:25.389Z,101422.16
2023-01-25T05:49:27.354Z,101434.31
2023-01-25T05:50:29.165Z,101431.66
2023-01-25T05:51:31.056Z,101434.28
2023-01-25T05:52:32.691Z,101429.09
2023-01-25T05:53:34.541Z,101423.03
2023-01-25T05:54:36.265Z,101418.69
2023-01-25T05:55:37.969Z,101426.50
2023-01-25T05:56:39.849Z,101405.69
2023-01-25T05:57:43.997Z,101453.19
2023-01-25T05:58:45.810Z,101428.25
2023-01-25T05:59:47.703Z,101428.25
2023-01-25T06:00:49.431Z,101428.25
2023-01-25T06:01:53.244Z,101422.28
2023-01-25T06:02:57.222Z,101427.44
2023-01-25T06:03:59.901Z,101427.38
2023-01-25T06:05:03.767Z,101423.97
2023-01-25T06:06:06.602Z,101423.16
2023-01-25T06:07:08.838Z,101418.88
2023-01-25T06:08:10.781Z,101360.72
2023-01-25T06:09:13.598Z,101424.88
2023-01-25T06:10:15.741Z,101450.69
2023-01-25T06:11:22.533Z,101425.81
2023-01-25T06:12:24.427Z,101431.88
2023-01-25T06:13:29.010Z,101431.00
2023-01-25T06:14:30.822Z,101426.66
2023-01-25T06:15:32.605Z,101424.13
2023-01-25T06:16:35.665Z,101425.88
2023-01-25T06:17:37.652Z,101425.00
2023-01-25T06:18:39.423Z,101418.06
2023-01-25T06:19:41.847Z,101410.31
2023-01-25T06:20:46.329Z,101418.06
2023-01-25T06:21:48.770Z,101412.84
2023-01-25T06:22:51.988Z,101410.25
2023-01-25T06:23:54.586Z,101412.84
2023-01-25T06:24:56.321Z,101412.84
2023-01-25T06:26:05.288Z,101410.25
2023-01-25T06:27:06.897Z,101406.88
2023-01-25T06:28:09.104Z,101410.31
2023-01-25T06:29:11.138Z,101406.03
2023-01-25T06:30:19.059Z,101405.97
2023-01-25T06:31:21.378Z,101399.09
2023-01-25T06:32:26.968Z,101408.63
2023-01-25T06:33:28.816Z,101405.22
2023-01-25T06:34:30.806Z,101395.78
2023-01-25T06:35:34.112Z,101400.13
2023-01-25T06:36:35.835Z,101397.53
2023-01-25T06:37:37.660Z,101393.19
2023-01-25T06:38:40.357Z,101389.66
2023-01-25T06:39:42.097Z,101392.31
2023-01-25T06:40:43.731Z,101386.25
2023-01-25T06:41:45.613Z,101387.13
2023-01-25T06:42:47.538Z,101385.38
2023-01-25T06:43:52.766Z,101381.09
2023-01-25T06:44:56.174Z,101380.22
2023-01-25T06:46:05.863Z,101378.44
2023-01-25T06:47:11.224Z,101389.66
2023-01-25T06:48:13.813Z,101385.38
2023-01-25T06:49:15.525Z,101383.56
2023-01-25T06:50:17.527Z,101382.69
2023-01-25T06:51:19.415Z,101380.09
2023-01-25T06:52:21.286Z,101383.50
2023-01-25T06:53:25.485Z,101386.94
2023-01-25T06:54:27.855Z,101386.06
2023-01-25T06:55:29.666Z,101375.75
2023-01-25T06:56:32.768Z,101381.78
2023-01-25T06:57:35.591Z,101382.66
2023-01-25T06:58:37.957Z,101392.97
2023-01-25T06:59:41.019Z,101382.66
2023-01-25T07:00:42.874Z,101386.94
2023-01-25T07:01:44.731Z,101384.44
2023-01-25T07:02:46.548Z,101382.69
2023-01-25T07:03:52.980Z,101382.69
2023-01-25T07:04:54.855Z,101376.63
2023-01-25T07:06:00.700Z,101376.63
2023-01-25T07:07:02.406Z,101383.47
2023-01-25T07:08:04.343Z,101378.25
2023-01-25T07:09:12.375Z,101364.19
2023-01-25T07:10:14.598Z,101376.41
2023-01-25T07:11:19.015Z,101371.25
2023-01-25T07:12:22.469Z,101391.03
2023-01-25T07:13:26.288Z,101388.44
2023-01-25T07:14:30.919Z,101388.44
2023-01-25T07:15:33.380Z,101374.59
2023-01-25T07:16:38.830Z,101378.94
2023-01-25T07:17:40.512Z,101384.09
2023-01-25T07:18:42.512Z,101375.44
2023-01-25T07:19:45.663Z,101383.19
2023-01-25T07:20:48.015Z,101382.25
2023-01-25T07:21:49.896Z,101377.97
2023-01-25T07:22:52.108Z,101376.22
2023-01-25T07:23:54.138Z,101379.66
2023-01-25T07:24:57.840Z,101380.50
2023-01-25T07:26:00.418Z,101377.03
2023-01-25T07:27:02.260Z,101384.84
2023-01-25T07:28:04.102Z,101382.31
2023-01-25T07:29:05.777Z,101379.72
2023-01-25T07:30:10.718Z,101373.75
2023-01-25T07:31:12.993Z,101371.16
2023-01-25T07:32:15.114Z,101377.19
2023-01-25T07:33:17.330Z,101372.00
2023-01-25T07:34:19.201Z,101357.25
2023-01-25T07:35:21.405Z,101382.47
2023-01-25T07:36:24.726Z,101378.19
2023-01-25T07:37:27.844Z,101371.19
2023-01-25T07:38:29.688Z,101408.34
2023-01-25T07:39:31.485Z,101379.13
2023-01-25T07:40:33.495Z,101373.16
2023-01-25T07:41:35.825Z,101384.34
2023-01-25T07:42:38.209Z,101386.16
2023-01-25T07:43:40.343Z,101383.63
2023-01-25T07:44:42.189Z,101388.03
2023-01-25T07:45:48.684Z,101388.03
2023-01-25T07:46:56.750Z,101363.78
2023-01-25T07:48:08.772Z,101385.50
2023-01-25T07:49:13.940Z,101388.97
2023-01-25T07:50:16.644Z,101384.69
2023-01-25T07:51:25.482Z,101383.00
2023-01-25T07:52:27.217Z,101388.25
2023-01-25T07:53:28.873Z,101384.81
2023-01-25T07:54:30.880Z,101381.41
2023-01-25T07:55:33.025Z,101384.00
2023-01-25T07:56:38.622Z,101383.13
2023-01-25T07:57:41.170Z,101384.00
2023-01-25T07:58:42.928Z,101379.72
2023-01-25T07:59:44.890Z,101393.38
2023-01-25T08:00:46.653Z,101390.13
2023-01-25T08:01:48.563Z,101389.25
2023-01-25T08:02:51.694Z,101384.06
2023-01-25T08:03:59.374Z,101380.53
2023-01-25T08:05:01.833Z,101385.72
2023-01-25T08:06:06.968Z,101379.66
2023-01-25T08:07:09.060Z,101382.34
2023-01-25T08:08:11.106Z,101383.28
2023-01-25T08:09:16.170Z,101358.16
2023-01-25T08:10:18.017Z,101390.13
2023-01-25T08:11:23.792Z,101384.00
2023-01-25T08:12:29.632Z,101385.72
2023-01-25T08:13:31.341Z,101370.97
2023-01-25T08:14:33.771Z,101386.59
2023-01-25T08:15:35.969Z,101386.63
2023-01-25T08:16:37.797Z,101393.63
2023-01-25T08:17:39.783Z,101388.50
2023-01-25T08:18:41.619Z,101391.13
2023-01-25T08:19:43.340Z,101390.34
2023-01-25T08:20:45.264Z,101393.81
2023-01-25T08:21:47.245Z,101393.81
2023-01-25T08:22:49.214Z,101391.28
2023-01-25T08:23:51.847Z,101388.75
2023-01-25T08:24:55.297Z,101360.22
2023-01-25T08:26:05.610Z,101383.69
2023-01-25T08:27:07.591Z,101383.69
2023-01-25T08:28:09.513Z,101376.78
2023-01-25T08:29:12.331Z,101393.22
2023-01-25T08:30:14.463Z,101382.03
2023-01-25T08:31:19.542Z,101385.56
2023-01-25T08:32:21.555Z,101379.50
2023-01-25T08:33:23.234Z,101387.31
2023-01-25T08:34:25.145Z,101385.56
2023-01-25T08:35:26.816Z,101380.44
2023-01-25T08:36:29.127Z,101392.53
2023-01-25T08:37:33.065Z,101383.94
2023-01-25T08:38:35.350Z,101384.84
2023-01-25T08:39:37.160Z,101384.00
2023-01-25T08:40:39.314Z,101375.38
2023-01-25T08:41:42.242Z,101374.34
2023-01-25T08:42:45.085Z,101378.63
2023-01-25T08:43:47.798Z,101373.41
2023-01-25T08:44:49.537Z,101377.81
2023-01-25T08:45:57.941Z,101378.78
2023-01-25T08:47:00.496Z,101374.53
2023-01-25T08:48:03.032Z,101378.81
2023-01-25T08:49:05.298Z,101374.63
2023-01-25T08:50:08.047Z,101378.13
2023-01-25T08:51:15.858Z,101360.97
2023-01-25T08:52:17.553Z,101364.41
2023-01-25T08:53:19.594Z,101364.47
2023-01-25T08:54:21.362Z,101358.41
2023-01-25T08:55:23.070Z,101360.16
2023-01-25T08:56:25.212Z,101363.72
2023-01-25T08:57:27.101Z,101360.28
2023-01-25T08:58:29.899Z,101356.88
2023-01-25T08:59:31.689Z,101359.50
2023-01-25T09:00:33.534Z,101358.66
2023-01-25T09:01:35.456Z,101354.38
2023-01-25T09:02:37.637Z,101348.38
2023-01-25T09:03:42.227Z,101353.63
2023-01-25T09:04:43.955Z,101358.84
2023-01-25T09:05:45.802Z,101350.22
2023-01-25T09:06:47.559Z,101354.56
2023-01-25T09:07:49.457Z,101355.44
2023-01-25T09:08:51.713Z,101356.31
2023-01-25T09:09:54.263Z,101357.16
2023-01-25T09:11:00.525Z,101339.81
2023-01-25T09:12:02.652Z,101358.00
2023-01-25T09:13:08.877Z,101355.44
2023-01-25T09:14:11.596Z,101361.56
2023-01-25T09:15:13.556Z,101364.19
2023-01-25T09:16:26.609Z,101358.16
2023-01-25T09:17:28.577Z,101352.06
2023-01-25T09:18:31.465Z,101358.19
2023-01-25T09:19:33.159Z,101357.31
2023-01-25T09:20:35.112Z,101352.13
2023-01-25T09:21:37.418Z,101366.88
2023-01-25T09:22:40.761Z,101359.13
2023-01-25T09:24:05.375Z,101361.75
2023-01-25T09:25:08.494Z,101344.41
2023-01-25T09:26:11.555Z,101349.63
2023-01-25T09:27:13.249Z,101353.03
2023-01-25T09:28:15.012Z,101355.63
2023-01-25T09:29:16.876Z,101354.81
2023-01-25T09:30:19.559Z,101352.22
2023-01-25T09:31:23.789Z,101352.22
2023-01-25T09:32:26.995Z,101352.19
2023-01-25T09:33:34.718Z,101351.28
2023-01-25T09:34:36.810Z,101346.91
2023-01-25T09:35:38.539Z,101356.41
2023-01-25T09:36:40.506Z,101363.28
2023-01-25T09:37:42.311Z,101352.88
2023-01-25T09:38:43.990Z,101357.19
2023-01-25T09:39:45.591Z,101363.22
2023-01-25T09:41:14.216Z,101354.56
2023-01-25T09:42:15.992Z,101359.75
2023-01-25T09:43:46.922Z,101361.50
2023-01-25T09:45:14.975Z,101352.84
2023-01-25T09:46:33.876Z,101368.34
2023-01-25T09:47:50.786Z,101298.13
2023-01-25T09:49:11.581Z,101360.59
2023-01-25T09:50:36.283Z,101354.56
2023-01-25T09:51:56.669Z,101350.25
2023-01-25T09:53:16.238Z,101348.56
2023-01-25T09:54:21.309Z,101351.16
2023-01-25T09:55:28.843Z,101350.31
2023-01-25T09:56:35.772Z,101353.75
2023-01-25T09:57:41.276Z,101347.72
2023-01-25T09:58:53.811Z,101349.44
2023-01-25T09:59:56.749Z,101347.75
2023-01-25T10:01:38.003Z,101343.47
2023-01-25T10:03:03.439Z,101346.09
2023-01-25T10:04:44.570Z,101344.44
2023-01-25T10:05:50.120Z,101288.13
2023-01-25T10:07:02.105Z,101343.63
2023-01-25T10:08:11.591Z,101349.66
2023-01-25T10:09:28.443Z,101342.72
2023-01-25T10:10:40.228Z,101345.34
2023-01-25T10:11:44.073Z,101344.50
2023-01-25T10:12:47.537Z,101341.91
2023-01-25T10:13:49.639Z,101337.53
2023-01-25T10:14:52.232Z,101343.63
2023-01-25T10:16:05.206Z,101343.69
2023-01-25T10:17:19.231Z,101343.69
2023-01-25T10:18:45.015Z,101351.47
2023-01-25T10:19:57.690Z,101348.88
2023-01-25T10:21:07.048Z,101346.22
2023-01-25T10:22:20.142Z,101341.88
2023-01-25T10:23:28.232Z,101348.84
2023-01-25T10:24:48.571Z,101346.28
2023-01-25T10:25:59.584Z,101351.44
2023-01-25T10:27:27.608Z,101323.72
2023-01-25T10:28:50.050Z,101345.44
2023-01-25T10:29:56.107Z,101335.00
2023-01-25T10:31:02.816Z,101335.00
2023-01-25T10:32:20.281Z,101335.00
2023-01-25T10:33:22.317Z,101337.59
2023-01-25T10:34:47.041Z,101328.97
2023-01-25T10:36:01.073Z,101322.03
2023-01-25T10:37:11.440Z,101333.25
2023-01-25T10:38:19.428Z,101332.38
2023-01-25T10:39:22.073Z,101327.25
2023-01-25T10:40:27.056Z,101331.59
2023-01-25T10:41:41.667Z,101330.78
2023-01-25T10:43:02.574Z,101325.63
2023-01-25T10:44:24.396Z,101313.53
2023-01-25T10:45:26.937Z,101320.47
2023-01-25T10:46:29.020Z,101317.88
2023-01-25T10:47:35.333Z,101324.78
2023-01-25T10:48:39.043Z,101314.41
2023-01-25T10:49:46.326Z,101317.88
2023-01-25T10:50:51.066Z,101313.59
2023-01-25T10:51:52.904Z,101312.75
2023-01-25T10:52:58.696Z,101308.41
2023-01-25T10:54:04.778Z,101309.28
2023-01-25T10:55:24.340Z,101301.53
2023-01-25T10:56:27.556Z,101305.84
2023-01-25T10:57:30.074Z,101306.75
2023-01-25T10:58:43.681Z,101303.28
2023-01-25T10:59:53.043Z,101299.81
2023-01-25T11:00:56.031Z,101303.25
2023-01-25T11:02:33.314Z,101296.34
2023-01-25T11:03:38.360Z,101297.19
2023-01-25T11:04:43.056Z,101297.19
2023-01-25T11:05:55.505Z,101308.41
2023-01-25T11:06:58.162Z,101305.78
2023-01-25T11:08:22.608Z,101299.72
2023-01-25T11:09:36.439Z,101303.22
2023-01-25T11:10:46.415Z,101293.69
2023-01-25T11:12:00.826Z,101302.28
2023-01-25T11:13:28.019Z,101302.28
2023-01-25T11:14:32.366Z,101298.78
2023-01-25T11:15:34.510Z,101301.34
2023-01-25T11:16:40.713Z,101297.06
2023-01-25T11:17:42.677Z,101294.47
2023-01-25T11:18:55.568Z,101294.44
2023-01-25T11:20:16.311Z,101295.25
2023-01-25T11:21:23.506Z,101293.50
2023-01-25T11:22:28.533Z,101290.09
2023-01-25T11:23:32.469Z,101282.31
2023-01-25T11:24:36.070Z,101283.22
2023-01-25T11:25:37.861Z,101287.53
2023-01-25T11:26:41.205Z,101279.75
2023-01-25T11:27:43.092Z,101279.78
2023-01-25T11:28:49.160Z,101274.56
2023-01-25T11:30:20.317Z,101269.38
2023-01-25T11:31:23.637Z,101267.69
2023-01-25T11:32:26.115Z,101261.59
2023-01-25T11:33:28.543Z,101266.78
2023-01-25T11:34:30.806Z,101264.22
2023-01-25T11:35:35.865Z,101259.91
2023-01-25T11:36:56.118Z,101214.03
2023-01-25T11:38:03.826Z,101253.84
2023-01-25T11:39:21.548Z,101249.53
2023-01-25T11:40:36.480Z,101249.53
2023-01-25T11:42:01.321Z,101243.47
2023-01-25T11:43:28.061Z,101244.38
2023-01-25T11:45:23.113Z,101240.03
2023-01-25T11:46:53.542Z,101238.31
2023-01-25T11:48:17.790Z,101236.53
2023-01-25T11:49:43.825Z,101235.69
2023-01-25T11:51:03.009Z,101237.44
2023-01-25T11:52:24.062Z,101225.34
2023-01-25T11:54:01.073Z,101224.47
2023-01-25T11:55:22.195Z,101215.81
2023-01-25T11:56:42.734Z,101219.28
2023-01-25T11:58:03.443Z,101211.50
2023-01-25T11:59:23.741Z,101206.31
2023-01-25T12:00:41.164Z,101211.47
2023-01-25T12:01:58.579Z,101200.25
2023-01-25T12:03:10.088Z,101208.88
2023-01-25T12:04:34.884Z,101196.75
2023-01-25T12:05:53.799Z,101197.63
2023-01-25T12:07:05.645Z,101186.41
2023-01-25T12:08:33.074Z,101190.72
2023-01-25T12:09:59.244Z,101183.78
2023-01-25T12:11:33.699Z,101184.66
2023-01-25T12:12:54.494Z,101182.97
2023-01-25T12:14:11.001Z,101175.19
2023-01-25T12:15:31.542Z,101174.31
2023-01-25T12:16:50.273Z,101179.50
2023-01-25T12:18:20.898Z,101182.06
2023-01-25T12:19:25.612Z,101174.31
2023-01-25T12:20:49.118Z,101172.59
2023-01-25T12:22:06.173Z,101168.25
2023-01-25T12:23:19.935Z,101165.63
2023-01-25T12:24:21.601Z,101170.78
2023-01-25T12:25:29.282Z,101162.19
2023-01-25T12:26:51.129Z,101157.03
2023-01-25T12:28:11.071Z,101155.31
2023-01-25T12:29:38.041Z,101155.34